Time;durP1;ratioP1;P1;durP2;ratioP2;P2;SDS_P1;SDS_P2;PMS_P1;PMS_P2;Temp;Humidity;BMP_temperature;BMP_pressure;BME280_temperature;BME280_humidity;BME280_pressure;Samples;Min_cycle;Max_cycle;Signal;HPM_P1;HPM_P2
2024/03/13 00:04:14;;;;;;;;;;;;;;;5.79;100.00;95744.50;10502246;28;2899;-69
2024/03/13 00:09:20;;;;;;;;;;;;;;;5.86;100.00;95742.47;10507335;28;2887;-66
2024/03/13 00:14:23;;;;;;;;;;;;;;;5.90;100.00;95740.91;10507395;28;2876;-64
2024/03/13 00:19:26;;;;;;;;;;;;;;;5.75;100.00;95735.38;10503651;28;2837;-66
2024/03/13 00:24:28;;;;;;;;;;;;;;;5.78;100.00;95747.41;10500552;28;2836;-62
2024/03/13 00:29:31;;;;;;;;;;;;;;;5.77;100.00;95743.94;10508324;28;2808;-65
2024/03/13 00:34:34;;;;;;;;;;;;;;;5.70;100.00;95737.94;10506976;28;2835;-66
2024/03/13 00:39:36;;;;;;;;;;;;;;;5.76;100.00;95731.66;10511636;28;2923;-66
2024/03/13 00:44:39;;;;;;;;;;;;;;;5.73;100.00;95728.69;10506020;28;2769;-64
2024/03/13 00:49:42;;;;;;;;;;;;;;;5.78;100.00;95723.41;10508909;28;2836;-66
2024/03/13 00:54:45;;;;;;;;;;;;;;;5.83;100.00;95731.47;10516934;28;2852;-65
2024/03/13 00:59:48;;;;;;;;;;;;;;;5.91;100.00;95726.56;10511935;28;3330;-65
2024/03/13 01:04:50;;;;;;;;;;;;;;;5.95;100.00;95725.03;10507597;28;2871;-64
2024/03/13 01:09:53;;;;;;;;;;;;;;;5.96;100.00;95728.50;10514945;28;2783;-66
2024/03/13 01:14:55;;;;;;;;;;;;;;;6.04;100.00;95728.06;10509931;28;2836;-65
2024/03/13 01:19:58;;;;;;;;;;;;;;;5.94;100.00;95717.28;10505846;28;2788;-68
2024/03/13 01:25:00;;;;;;;;;;;;;;;5.93;100.00;95721.81;10506113;28;2902;-66
2024/03/13 01:30:03;;;;;;;;;;;;;;;5.89;100.00;95715.28;10510934;28;2839;-66
2024/03/13 01:35:06;;;;;;;;;;;;;;;5.79;100.00;95709.00;10507527;28;3293;-64
2024/03/13 01:40:16;;;;;;;;;;;;;;;5.72;100.00;95698.50;10505832;28;2855;-64
2024/03/13 01:56:21;;;;;;;;;;;;;;;5.56;100.00;95694.81;10518009;28;2843;-64
2024/03/13 02:06:45;;;;;;;;;;;;;;;5.38;100.00;95687.06;10510642;28;2849;-65
2024/03/13 02:11:49;;;;;;;;;;;;;;;5.37;100.00;95682.78;10509365;28;2781;-66
2024/03/13 02:16:54;;;;;;;;;;;;;;;5.38;100.00;95676.41;10513846;28;2878;-65
2024/03/13 02:21:58;;;;;;;;;;;;;;;5.33;100.00;95678.97;10508047;28;2858;-67
2024/03/13 02:27:00;;;;;;;;;;;;;;;5.35;100.00;95676.91;10511626;28;2820;-65
2024/03/13 02:32:03;;;;;;;;;;;;;;;5.35;100.00;95668.91;10507480;28;2799;-64
2024/03/13 02:37:06;;;;;;;;;;;;;;;5.31;100.00;95668.56;10507631;28;2928;-65
2024/03/13 02:42:09;;;;;;;;;;;;;;;5.30;100.00;95664.28;10509950;28;2829;-65
2024/03/13 02:47:12;;;;;;;;;;;;;;;5.21;100.00;95656.94;10510956;28;3000;-69
2024/03/13 02:52:14;;;;;;;;;;;;;;;5.26;100.00;95657.81;10507778;28;2799;-65
2024/03/13 02:57:18;;;;;;;;;;;;;;;5.16;100.00;95649.69;10507437;28;2864;-66
2024/03/13 03:02:20;;;;;;;;;;;;;;;5.17;100.00;95651.28;10506778;28;2921;-66
2024/03/13 03:07:23;;;;;;;;;;;;;;;5.20;100.00;95652.66;10497638;28;2876;-67
2024/03/13 03:12:26;;;;;;;;;;;;;;;5.15;100.00;95645.38;10507432;28;2865;-70
2024/03/13 03:17:31;;;;;;;;;;;;;;;5.13;100.00;95658.16;10506576;28;3075;-66
2024/03/13 03:22:34;;;;;;;;;;;;;;;5.12;100.00;95668.00;10512953;28;2764;-69
2024/03/13 03:27:37;;;;;;;;;;;;;;;5.09;100.00;95668.50;10505430;28;3382;-64
2024/03/13 03:32:39;;;;;;;;;;;;;;;5.13;100.00;95666.94;10504099;28;2809;-69
2024/03/13 03:37:42;;;;;;;;;;;;;;;5.14;100.00;95659.75;10512292;28;2836;-67
2024/03/13 03:42:46;;;;;;;;;;;;;;;5.13;100.00;95655.47;10505045;28;2785;-65
2024/03/13 03:47:49;;;;;;;;;;;;;;;5.14;100.00;95667.75;10499339;28;2856;-66
2024/03/13 03:53:05;;;;;;;;;;;;;;;5.01;100.00;95668.06;10504561;28;2871;-66
2024/03/13 03:58:08;;;;;;;;;;;;;;;5.02;100.00;95665.16;10508647;28;2889;-66
2024/03/13 04:03:12;;;;;;;;;;;;;;;5.08;100.00;95669.53;10503641;28;2827;-67
2024/03/13 04:08:15;;;;;;;;;;;;;;;5.05;100.00;95669.22;10511439;28;2901;-66
2024/03/13 04:13:19;;;;;;;;;;;;;;;5.00;100.00;95666.47;10507575;28;2936;-68
2024/03/13 04:18:22;;;;;;;;;;;;;;;4.91;100.00;95668.72;10506424;28;2883;-66
2024/03/13 04:23:25;;;;;;;;;;;;;;;4.77;100.00;95670.88;10510108;28;2903;-67
2024/03/13 04:28:27;;;;;;;;;;;;;;;4.74;100.00;95665.22;10504589;28;2858;-66
2024/03/13 04:33:30;;;;;;;;;;;;;;;4.59;100.00;95669.22;10515298;28;2855;-65
2024/03/13 04:38:33;;;;;;;;;;;;;;;4.67;100.00;95669.88;10515183;28;2933;-66
2024/03/13 04:43:35;;;;;;;;;;;;;;;4.61;100.00;95674.28;10510917;28;2736;-64
2024/03/13 04:48:38;;;;;;;;;;;;;;;4.53;100.00;95685.34;10514142;28;2846;-67
2024/03/13 04:53:43;;;;;;;;;;;;;;;4.51;100.00;95679.41;10516409;28;2831;-73
2024/03/13 04:58:45;;;;;;;;;;;;;;;4.44;100.00;95694.72;10516139;28;2780;-73
2024/03/13 05:03:49;;;;;;;;;;;;;;;4.35;100.00;95688.97;10509100;28;2792;-74
2024/03/13 05:08:51;;;;;;;;;;;;;;;4.36;100.00;95697.78;10511309;28;2855;-70
2024/03/13 05:13:55;;;;;;;;;;;;;;;4.39;100.00;95705.25;10517909;28;2922;-67
2024/03/13 05:18:57;;;;;;;;;;;;;;;4.30;100.00;95707.50;10518776;28;2768;-68
2024/03/13 05:24:00;;;;;;;;;;;;;;;4.26;100.00;95701.84;10512557;28;2873;-69
2024/03/13 05:29:03;;;;;;;;;;;;;;;4.26;100.00;95701.84;10508690;28;3180;-68
2024/03/13 05:34:08;;;;;;;;;;;;;;;4.32;100.00;95711.53;10512126;28;2928;-67
2024/03/13 05:39:12;;;;;;;;;;;;;;;4.34;100.00;95711.31;10511881;28;2903;-64
2024/03/13 05:44:15;;;;;;;;;;;;;;;4.38;100.00;95701.81;10508283;28;2987;-68
2024/03/13 05:49:17;;;;;;;;;;;;;;;4.56;100.00;95708.81;10510637;28;2822;-74
2024/03/13 05:54:20;;;;;;;;;;;;;;;4.58;100.00;95715.53;10513806;28;3298;-69
2024/03/13 05:59:22;;;;;;;;;;;;;;;4.66;100.00;95721.53;10508721;28;3059;-66
2024/03/13 06:04:25;;;;;;;;;;;;;;;4.76;100.00;95724.34;10511392;28;2860;-67
2024/03/13 06:09:28;;;;;;;;;;;;;;;4.84;100.00;95735.47;10510670;28;2841;-67
2024/03/13 06:14:32;;;;;;;;;;;;;;;5.01;100.00;95734.66;10513184;28;2903;-67
2024/03/13 06:19:35;;;;;;;;;;;;;;;5.05;100.00;95730.50;10508415;28;2861;-66
2024/03/13 06:24:38;;;;;;;;;;;;;;;5.04;100.00;95735.00;10507592;28;2925;-71
2024/03/13 06:35:04;;;;;;;;;;;;;;;5.42;100.00;95729.00;10507495;28;2871;-69
2024/03/13 06:40:06;;;;;;;;;;;;;;;5.51;100.00;95733.91;10513256;28;2898;-67
2024/03/13 06:45:09;;;;;;;;;;;;;;;5.63;100.00;95722.13;10513584;28;2850;-68
2024/03/13 06:50:17;;;;;;;;;;;;;;;5.80;100.00;95721.31;10515376;28;2785;-67
2024/03/13 06:55:21;;;;;;;;;;;;;;;6.10;100.00;95727.09;10512586;28;2862;-69
2024/03/13 07:00:27;;;;;;;;;;;;;;;6.29;100.00;95724.13;10517706;28;2895;-67
2024/03/13 07:05:32;;;;;;;;;;;;;;;6.28;100.00;95728.66;10516908;28;2851;-67
2024/03/13 07:10:34;;;;;;;;;;;;;;;6.21;100.00;95734.19;10516289;28;2881;-71
2024/03/13 07:15:38;;;;;;;;;;;;;;;6.38;100.00;95723.47;10515660;28;2840;-67
2024/03/13 07:20:41;;;;;;;;;;;;;;;6.49;100.00;95730.56;10514701;28;2878;-69
2024/03/13 07:25:44;;;;;;;;;;;;;;;6.54;100.00;95726.31;10512847;28;2876;-67
2024/03/13 07:30:47;;;;;;;;;;;;;;;6.77;100.00;95728.72;10516783;28;2862;-70
2024/03/13 07:35:50;;;;;;;;;;;;;;;6.97;100.00;95723.59;10500686;28;2867;-67
2024/03/13 07:40:52;;;;;;;;;;;;;;;7.11;100.00;95725.84;10504883;28;2844;-68
2024/03/13 07:45:55;;;;;;;;;;;;;;;7.60;100.00;95723.91;10501121;28;2816;-65
2024/03/13 07:50:58;;;;;;;;;;;;;;;7.65;100.00;95725.81;10503316;28;2824;-66
2024/03/13 07:56:00;;;;;;;;;;;;;;;7.80;100.00;95721.38;10501170;28;2891;-66
2024/03/13 08:01:05;;;;;;;;;;;;;;;7.99;100.00;95721.75;10503659;28;2930;-67
2024/03/13 08:06:08;;;;;;;;;;;;;;;8.17;100.00;95738.47;10508994;28;2882;-66
2024/03/13 08:11:31;;;;;;;;;;;;;;;8.32;100.00;95734.00;10513195;28;2906;-65
2024/03/13 08:16:50;;;;;;;;;;;;;;;8.21;100.00;95736.91;10513030;28;2815;-64
2024/03/13 08:22:11;;;;;;;;;;;;;;;8.09;100.00;95737.91;10507952;28;2918;-74
2024/03/13 08:27:33;;;;;;;;;;;;;;;8.62;100.00;95741.41;10511764;28;2878;-67
2024/03/13 08:32:53;;;;;;;;;;;;;;;8.60;100.00;95738.19;10510543;28;2987;-66
2024/03/13 08:38:13;;;;;;;;;;;;;;;8.84;100.00;95733.19;10512060;28;3029;-67
2024/03/13 08:43:33;;;;;;;;;;;;;;;8.57;100.00;95744.06;10503011;28;2832;-66
2024/03/13 08:48:56;;;;;;;;;;;;;;;8.94;100.00;95757.34;10509600;28;2828;-67
2024/03/13 08:54:17;;;;;;;;;;;;;;;9.27;100.00;95757.97;10509422;28;2871;-66
2024/03/13 08:59:37;;;;;;;;;;;;;;;9.26;100.00;95755.53;10503078;28;2922;-66
2024/03/13 09:04:57;;;;;;;;;;;;;;;8.87;100.00;95764.81;10506827;28;2947;-63
2024/03/13 09:10:18;;;;;;;;;;;;;;;9.25;100.00;95759.31;10510955;28;2800;-65
2024/03/13 09:15:23;;;;;;;;;;;;;;;8.87;100.00;95770.19;10510567;28;2865;-67
2024/03/13 09:20:26;;;;;;;;;;;;;;;9.39;100.00;95765.75;10506170;28;2857;-72
2024/03/13 09:25:29;;;;;;;;;;;;;;;9.62;100.00;95772.50;10511254;28;2871;-66
2024/03/13 09:30:31;;;;;;;;;;;;;;;9.79;100.00;95764.97;10507531;28;2993;-67
2024/03/13 09:35:34;;;;;;;;;;;;;;;9.74;100.00;95768.50;10507363;28;2946;-65
2024/03/13 09:40:38;;;;;;;;;;;;;;;9.46;100.00;95769.00;10506314;28;2884;-66
2024/03/13 09:45:44;;;;;;;;;;;;;;;9.20;100.00;95779.66;10526705;27;2777;-67
2024/03/13 09:50:46;;;;;;;;;;;;;;;9.81;100.00;95780.84;10508284;28;2845;-66
2024/03/13 09:55:56;;;;;;;;;;;;;;;9.50;100.00;95777.31;10511485;28;2883;-70
2024/03/13 10:00:59;;;;;;;;;;;;;;;9.34;100.00;95784.53;10511352;28;2857;-71
2024/03/13 10:06:01;;;;;;;;;;;;;;;9.56;100.00;95789.69;10505309;28;2944;-66
2024/03/13 10:11:04;;;;;;;;;;;;;;;10.00;100.00;95776.53;10504893;28;2855;-66
2024/03/13 10:16:07;;;;;;;;;;;;;;;9.85;100.00;95782.69;10511847;28;2891;-66
2024/03/13 10:21:12;;;;;;;;;;;;;;;10.05;100.00;95787.25;10508187;28;2824;-67
2024/03/13 10:26:15;;;;;;;;;;;;;;;9.80;100.00;95772.00;10505745;28;3240;-66
2024/03/13 10:31:18;;;;;;;;;;;;;;;10.25;100.00;95768.50;10505015;28;2931;-67
2024/03/13 10:36:21;;;;;;;;;;;;;;;11.39;100.00;95767.78;10507006;28;2895;-67
2024/03/13 10:41:23;;;;;;;;;;;;;;;11.81;100.00;95769.94;10500692;28;2847;-66
2024/03/13 10:46:26;;;;;;;;;;;;;;;12.20;100.00;95766.38;10497306;28;2945;-67
2024/03/13 10:51:29;;;;;;;;;;;;;;;12.05;100.00;95761.13;10504303;28;2849;-64
2024/03/13 10:56:32;;;;;;;;;;;;;;;12.07;100.00;95765.13;10501643;28;3024;-65
2024/03/13 11:01:35;;;;;;;;;;;;;;;11.98;100.00;95766.84;10502945;28;2820;-65
2024/03/13 11:06:38;;;;;;;;;;;;;;;11.59;100.00;95762.25;10499783;28;2876;-66
2024/03/13 11:11:41;;;;;;;;;;;;;;;11.04;100.00;95766.88;10498873;28;2986;-67
2024/03/13 11:16:44;;;;;;;;;;;;;;;10.41;100.00;95782.69;10506115;28;3219;-68
2024/03/13 11:21:47;;;;;;;;;;;;;;;10.04;100.00;95777.59;10507192;28;2852;-67
2024/03/13 11:26:49;;;;;;;;;;;;;;;10.79;100.00;95775.84;10506988;28;2871;-70
2024/03/13 11:31:52;;;;;;;;;;;;;;;11.19;100.00;95775.94;10505962;28;2835;-72
2024/03/13 11:36:55;;;;;;;;;;;;;;;10.40;100.00;95769.53;10505734;28;2784;-75
2024/03/13 11:41:58;;;;;;;;;;;;;;;10.03;100.00;95766.06;10502126;28;2879;-69
2024/03/13 11:47:00;;;;;;;;;;;;;;;9.75;100.00;95769.28;10503772;28;3091;-68
2024/03/13 11:52:04;;;;;;;;;;;;;;;9.45;100.00;95772.75;10505130;28;2909;-66
2024/03/13 11:57:06;;;;;;;;;;;;;;;9.59;100.00;95754.25;10503952;28;2950;-71
2024/03/13 12:02:09;;;;;;;;;;;;;;;10.01;100.00;95756.66;10500851;28;2835;-66
2024/03/13 12:07:11;;;;;;;;;;;;;;;10.35;100.00;95745.34;10500238;28;2866;-65
2024/03/13 12:12:14;;;;;;;;;;;;;;;10.63;100.00;95744.75;10504270;28;2834;-66
2024/03/13 12:17:17;;;;;;;;;;;;;;;10.24;100.00;95740.03;10504356;28;2823;-65
2024/03/13 12:22:20;;;;;;;;;;;;;;;10.20;100.00;95736.22;10503717;28;2828;-66
2024/03/13 12:27:24;;;;;;;;;;;;;;;10.27;100.00;95731.41;10500678;28;2911;-66
2024/03/13 12:32:29;;;;;;;;;;;;;;;10.77;100.00;95718.88;10501259;28;2799;-65
2024/03/13 12:37:32;;;;;;;;;;;;;;;11.45;100.00;95715.53;10506219;28;2922;-67
2024/03/13 12:42:36;;;;;;;;;;;;;;;11.48;100.00;95716.84;10498092;28;2958;-68
2024/03/13 12:47:39;;;;;;;;;;;;;;;11.45;100.00;95710.16;10503809;28;2972;-66
2024/03/13 12:52:42;;;;;;;;;;;;;;;11.30;100.00;95712.94;10512368;28;2815;-66
2024/03/13 12:57:45;;;;;;;;;;;;;;;11.00;100.00;95712.03;10500923;28;2791;-65
2024/03/13 13:02:47;;;;;;;;;;;;;;;10.98;100.00;95700.75;10503078;28;2921;-67
2024/03/13 13:07:54;;;;;;;;;;;;;;;12.22;100.00;95694.16;10511067;28;2793;-67
2024/03/13 13:12:56;;;;;;;;;;;;;;;12.57;100.00;95692.13;10504309;28;2914;-67
2024/03/13 13:18:01;;;;;;;;;;;;;;;12.88;100.00;95677.19;10509926;28;2819;-67
2024/03/13 13:23:04;;;;;;;;;;;;;;;13.29;100.00;95682.03;10506761;28;2918;-66
2024/03/13 13:28:10;;;;;;;;;;;;;;;12.76;100.00;95676.00;10504517;28;2836;-65
2024/03/13 13:33:13;;;;;;;;;;;;;;;12.73;100.00;95673.88;10481258;28;2871;-68
2024/03/13 13:38:18;;;;;;;;;;;;;;;12.20;100.00;95677.44;10509418;28;2852;-66
2024/03/13 13:43:24;;;;;;;;;;;;;;;11.67;100.00;95684.66;10514146;28;2776;-66
2024/03/13 13:48:27;;;;;;;;;;;;;;;11.44;100.00;95687.00;10505818;28;2861;-68
2024/03/13 13:53:32;;;;;;;;;;;;;;;11.17;100.00;95690.13;10508585;28;2831;-67
2024/03/13 13:58:35;;;;;;;;;;;;;;;10.89;100.00;95688.16;10508115;28;2918;-67
2024/03/13 14:03:38;;;;;;;;;;;;;;;10.62;100.00;95691.22;10505477;28;2811;-66
2024/03/13 14:08:41;;;;;;;;;;;;;;;10.70;100.00;95688.78;10504996;28;2913;-66
2024/03/13 14:13:44;;;;;;;;;;;;;;;10.99;100.00;95690.78;10501568;28;2840;-65
2024/03/13 14:18:47;;;;;;;;;;;;;;;11.12;100.00;95684.78;10507848;28;2811;-66
2024/03/13 14:23:50;;;;;;;;;;;;;;;11.29;100.00;95695.19;10500058;28;2874;-66
2024/03/13 14:28:53;;;;;;;;;;;;;;;11.32;100.00;95689.22;10505129;28;2854;-66
2024/03/13 14:33:56;;;;;;;;;;;;;;;10.87;100.00;95693.81;10505670;28;2887;-67
2024/03/13 14:38:59;;;;;;;;;;;;;;;10.62;100.00;95686.66;10503491;28;2822;-69
2024/03/13 14:44:02;;;;;;;;;;;;;;;10.90;100.00;95689.78;10500863;28;2841;-68
2024/03/13 14:49:04;;;;;;;;;;;;;;;11.08;100.00;95684.56;10502866;28;2998;-67
2024/03/13 14:54:09;;;;;;;;;;;;;;;11.31;100.00;95682.25;10508597;28;2799;-70
2024/03/13 14:59:13;;;;;;;;;;;;;;;11.22;100.00;95678.56;10502882;28;2868;-67
2024/03/13 15:04:16;;;;;;;;;;;;;;;11.23;100.00;95686.34;10503309;28;2804;-70
2024/03/13 15:09:19;;;;;;;;;;;;;;;11.23;100.00;95680.97;10504212;28;2947;-68
2024/03/13 15:14:39;;;;;;;;;;;;;;;11.10;100.00;95689.66;10502006;28;2948;-66
2024/03/13 15:19:55;;;;;;;;;;;;;;;10.92;100.00;95690.28;10504625;28;2839;-67
2024/03/13 15:25:03;;;;;;;;;;;;;;;10.69;100.00;95687.19;10502493;28;2871;-68
2024/03/13 15:30:06;;;;;;;;;;;;;;;10.72;100.00;95680.44;10501718;28;2909;-68
2024/03/13 15:35:08;;;;;;;;;;;;;;;10.75;100.00;95688.78;10505918;28;2925;-69
2024/03/13 15:40:14;;;;;;;;;;;;;;;11.09;100.00;95688.06;10499423;28;2875;-66
2024/03/13 15:45:17;;;;;;;;;;;;;;;10.94;100.00;95682.75;10496915;28;2824;-68
2024/03/13 15:50:20;;;;;;;;;;;;;;;10.68;100.00;95693.63;10499776;28;2845;-67
2024/03/13 15:55:33;;;;;;;;;;;;;;;10.61;100.00;95703.06;10493024;28;2897;-68
2024/03/13 16:00:37;;;;;;;;;;;;;;;10.55;100.00;95699.59;10503034;28;3245;-69
2024/03/13 16:05:39;;;;;;;;;;;;;;;10.39;100.00;95708.81;10495363;28;2950;-67
2024/03/13 16:10:43;;;;;;;;;;;;;;;10.29;100.00;95705.06;10495026;28;2869;-67
2024/03/13 16:15:45;;;;;;;;;;;;;;;10.20;100.00;95711.25;10498500;28;2857;-67
2024/03/13 16:20:48;;;;;;;;;;;;;;;10.09;100.00;95710.44;10512973;28;2886;-66
2024/03/13 16:25:50;;;;;;;;;;;;;;;10.12;100.00;95709.94;10503751;28;2816;-67
2024/03/13 16:30:53;;;;;;;;;;;;;;;10.01;100.00;95713.69;10511564;28;2797;-66
2024/03/13 16:35:57;;;;;;;;;;;;;;;9.98;100.00;95719.59;10512521;28;2905;-64
2024/03/13 16:41:00;;;;;;;;;;;;;;;9.92;100.00;95716.09;10506758;28;2893;-65
2024/03/13 16:46:04;;;;;;;;;;;;;;;9.94;100.00;95718.53;10526927;28;2762;-66
2024/03/13 16:51:07;;;;;;;;;;;;;;;9.94;100.00;95723.91;10515779;28;2896;-66
2024/03/13 16:56:10;;;;;;;;;;;;;;;9.98;100.00;95728.44;10509737;28;2839;-67
2024/03/13 17:01:13;;;;;;;;;;;;;;;9.85;100.00;95733.56;10510995;28;2830;-66
2024/03/13 17:06:16;;;;;;;;;;;;;;;9.74;100.00;95728.22;10501870;28;2869;-66
2024/03/13 17:11:19;;;;;;;;;;;;;;;9.81;100.00;95746.75;10510539;28;2814;-67
2024/03/13 17:16:22;;;;;;;;;;;;;;;9.74;100.00;95741.66;10510352;28;2764;-66
2024/03/13 17:21:25;;;;;;;;;;;;;;;9.73;100.00;95750.78;10512795;28;2900;-66
2024/03/13 17:26:28;;;;;;;;;;;;;;;9.79;100.00;95750.75;10511628;28;2986;-66
2024/03/13 17:31:30;;;;;;;;;;;;;;;9.67;100.00;95756.38;10509262;28;2813;-67
2024/03/13 17:36:33;;;;;;;;;;;;;;;9.66;100.00;95763.63;10502300;28;2876;-65
2024/03/13 17:41:36;;;;;;;;;;;;;;;9.58;100.00;95774.91;10513089;28;2880;-67
2024/03/13 17:46:39;;;;;;;;;;;;;;;9.49;100.00;95779.19;10512642;28;3321;-66
2024/03/13 17:51:41;;;;;;;;;;;;;;;9.28;100.00;95785.59;10507579;28;2821;-66
2024/03/13 17:56:44;;;;;;;;;;;;;;;9.19;100.00;95796.84;10508052;28;2839;-65
2024/03/13 18:01:47;;;;;;;;;;;;;;;9.19;100.00;95804.88;10521348;28;2910;-71
2024/03/13 18:06:51;;;;;;;;;;;;;;;9.11;100.00;95808.09;10508638;28;2911;-74
2024/03/13 18:11:53;;;;;;;;;;;;;;;8.96;100.00;95817.94;10510112;28;2946;-73
2024/03/13 18:16:56;;;;;;;;;;;;;;;8.95;100.00;95827.84;10514707;28;2795;-74
2024/03/13 18:21:59;;;;;;;;;;;;;;;8.84;100.00;95818.13;10504869;28;2832;-68
2024/03/13 18:27:02;;;;;;;;;;;;;;;8.66;100.00;95828.25;10503140;28;2891;-68
2024/03/13 18:32:05;;;;;;;;;;;;;;;8.62;100.00;95821.00;10511052;28;2894;-67
2024/03/13 18:37:08;;;;;;;;;;;;;;;8.69;100.00;95826.13;10504871;28;2940;-68
2024/03/13 18:42:11;;;;;;;;;;;;;;;8.60;100.00;95823.94;10505878;28;2854;-67
2024/03/13 18:47:14;;;;;;;;;;;;;;;8.62;100.00;95821.78;10507161;28;2831;-70
2024/03/13 18:52:17;;;;;;;;;;;;;;;8.57;100.00;95831.66;10513473;28;2817;-68
2024/03/13 18:57:22;;;;;;;;;;;;;;;8.49;100.00;95827.63;10509653;28;2998;-65
2024/03/13 19:02:25;;;;;;;;;;;;;;;8.56;100.00;95844.25;10508264;28;2865;-68
2024/03/13 19:07:29;;;;;;;;;;;;;;;8.60;100.00;95834.66;10503902;28;2900;-68
2024/03/13 19:12:31;;;;;;;;;;;;;;;8.64;100.00;95841.09;10513695;28;2796;-68
2024/03/13 19:17:34;;;;;;;;;;;;;;;8.68;100.00;95840.59;10508379;28;2800;-68
2024/03/13 19:22:37;;;;;;;;;;;;;;;8.77;100.00;95847.06;10499446;28;2924;-67
2024/03/13 19:27:40;;;;;;;;;;;;;;;8.71;100.00;95834.69;10509761;28;2796;-68
2024/03/13 19:32:43;;;;;;;;;;;;;;;8.82;100.00;95847.09;10511626;28;3079;-68
2024/03/13 19:37:45;;;;;;;;;;;;;;;8.81;100.00;95846.28;10508354;28;2917;-68
2024/03/13 19:42:48;;;;;;;;;;;;;;;8.79;100.00;95843.06;10505366;28;2865;-70
2024/03/13 19:47:51;;;;;;;;;;;;;;;8.80;100.00;95843.88;10506318;28;2975;-70
2024/03/13 19:52:53;;;;;;;;;;;;;;;8.82;100.00;95844.41;10506160;28;2768;-66
2024/03/13 19:57:58;;;;;;;;;;;;;;;8.81;100.00;95835.56;10507508;28;2867;-69
2024/03/13 20:03:05;;;;;;;;;;;;;;;8.76;100.00;95842.75;10512267;28;2879;-68
2024/03/13 20:08:11;;;;;;;;;;;;;;;8.75;100.00;95846.50;10515124;28;2825;-68
2024/03/13 20:13:14;;;;;;;;;;;;;;;8.70;100.00;95843.81;10514520;28;2924;-67
2024/03/13 20:18:17;;;;;;;;;;;;;;;8.72;100.00;95847.06;10511558;28;2841;-67
2024/03/13 20:23:20;;;;;;;;;;;;;;;8.74;100.00;95844.91;10512040;28;2887;-67
2024/03/13 20:28:22;;;;;;;;;;;;;;;8.69;100.00;95844.88;10511050;28;2804;-67
2024/03/13 20:33:25;;;;;;;;;;;;;;;8.66;100.00;95844.34;10508361;28;2856;-67
2024/03/13 20:38:29;;;;;;;;;;;;;;;8.71;100.00;95845.41;10514301;28;2932;-67
2024/03/13 20:43:31;;;;;;;;;;;;;;;8.60;100.00;95840.00;10508770;28;2820;-67
2024/03/13 20:48:36;;;;;;;;;;;;;;;8.62;100.00;95840.56;10517034;28;2812;-67
2024/03/13 20:53:47;;;;;;;;;;;;;;;8.65;100.00;95842.72;10517550;28;2820;-68
2024/03/13 20:58:53;;;;;;;;;;;;;;;8.55;100.00;95847.22;10511401;28;2832;-68
2024/03/13 21:03:56;;;;;;;;;;;;;;;8.44;100.00;95858.91;10511489;28;2891;-68
2024/03/13 21:08:59;;;;;;;;;;;;;;;8.42;100.00;95853.81;10508006;28;2902;-66
2024/03/13 21:14:02;;;;;;;;;;;;;;;8.33;100.00;95853.47;10508702;28;2945;-67
2024/03/13 21:19:05;;;;;;;;;;;;;;;8.30;100.00;95851.28;10517978;28;2870;-66
2024/03/13 21:24:11;;;;;;;;;;;;;;;8.29;100.00;95848.88;10513707;28;2886;-68
2024/03/13 21:29:15;;;;;;;;;;;;;;;8.30;100.00;95853.16;10513863;28;2872;-68
2024/03/13 21:34:17;;;;;;;;;;;;;;;8.25;100.00;95845.09;10510459;28;2828;-69
2024/03/13 21:39:29;;;;;;;;;;;;;;;8.16;100.00;95850.13;10508775;28;2887;-64
2024/03/13 21:44:35;;;;;;;;;;;;;;;8.17;100.00;95851.75;10507729;28;2965;-68
2024/03/13 21:49:38;;;;;;;;;;;;;;;8.20;100.00;95855.75;10511072;28;2843;-67
2024/03/13 21:54:41;;;;;;;;;;;;;;;8.22;100.00;95850.97;10514487;27;2924;-68
2024/03/13 21:59:44;;;;;;;;;;;;;;;8.23;100.00;95849.91;10507244;28;3481;-67
2024/03/13 22:04:47;;;;;;;;;;;;;;;8.22;100.00;95845.63;10515902;28;2799;-68
2024/03/13 22:09:49;;;;;;;;;;;;;;;8.20;100.00;95848.53;10509643;28;2807;-68
2024/03/13 22:14:52;;;;;;;;;;;;;;;8.19;100.00;95846.13;10508956;28;2912;-68
2024/03/13 22:19:55;;;;;;;;;;;;;;;8.18;100.00;95841.84;10509868;28;2935;-69
2024/03/13 22:24:57;;;;;;;;;;;;;;;8.16;100.00;95846.66;10505185;28;2955;-67
2024/03/13 22:30:00;;;;;;;;;;;;;;;8.24;100.00;95851.50;10504541;28;2928;-70
2024/03/13 22:35:05;;;;;;;;;;;;;;;8.16;100.00;95849.31;10508410;28;2783;-68
2024/03/13 22:40:11;;;;;;;;;;;;;;;8.21;100.00;95855.53;10508079;28;2837;-69
2024/03/13 22:45:14;;;;;;;;;;;;;;;8.24;100.00;95854.19;10508544;28;3118;-67
2024/03/13 22:50:17;;;;;;;;;;;;;;;8.19;100.00;95854.16;10505934;28;2790;-68
2024/03/13 22:55:20;;;;;;;;;;;;;;;8.19;100.00;95848.78;10510002;28;2794;-68
2024/03/13 23:05:47;;;;;;;;;;;;;;;8.20;100.00;95850.41;10604298;27;2838;-71
2024/03/13 23:10:49;;;;;;;;;;;;;;;8.21;100.00;95844.00;10546416;28;2794;-72
2024/03/13 23:15:52;;;;;;;;;;;;;;;8.33;100.00;95845.44;10542978;28;2948;-70
2024/03/13 23:20:58;;;;;;;;;;;;;;;8.30;100.00;95840.59;10542962;28;2919;-72
2024/03/13 23:26:01;;;;;;;;;;;;;;;8.29;100.00;95836.28;10542386;28;2837;-68
2024/03/13 23:31:04;;;;;;;;;;;;;;;8.32;100.00;95837.63;10543078;27;2837;-68
2024/03/13 23:36:07;;;;;;;;;;;;;;;8.31;100.00;95836.03;10538666;28;2884;-68
2024/03/13 23:41:10;;;;;;;;;;;;;;;8.34;100.00;95830.97;10539511;27;2888;-69
2024/03/13 23:46:13;;;;;;;;;;;;;;;8.31;100.00;95828.00;10542782;28;2844;-66
2024/03/13 23:51:15;;;;;;;;;;;;;;;8.27;100.00;95837.59;10536263;28;2835;-67
2024/03/13 23:56:18;;;;;;;;;;;;;;;8.32;100.00;95832.28;10545191;28;3196;-70
